Solomon, Arizona
Current Conditions -  °F | °C
As of 4:51 AM on Thursday 27 Nov 2014 (Local Time) from KSAD Reporting Station
Clear Clear  
Wind Chill: 37°   Ceiling: Unl
Heat Index: 43°   Visibility: 10mi
Dew Point: 17°   Wind: 12mph
Humidity: 35%   Direction: 140°SE
Pressure: 30.32"   Gusts: NA
Location:  32.82°N, 109.63°W
Report Text: KSAD 271151Z AUTO 14010KT 10SM CLR 06/M08 A3032 RMK AO2 SLP248 T00611083 10067 20028 50004
Loading
Personal Weather Stations






























Interactive Weather Map New forecast layout! Learn more

10-Day Weather Forecast

Advertisements
Track Severe Weather on mobile